Time;durP1;ratioP1;P1;durP2;ratioP2;P2;SDS_P1;SDS_P2;PMS_P1;PMS_P2;Temp;Humidity;BMP_temperature;BMP_pressure;BME280_temperature;BME280_humidity;BME280_pressure;Samples;Min_cycle;Max_cycle;Signal;HPM_P1;HPM_P2
2022/08/11 00:00:07;;;;;;;7.10;2.37;;;;;;;25.17;42.69;100604.69;5081214;28;20922;-61
2022/08/11 00:02:38;;;;;;;7.53;2.23;;;;;;;25.17;42.08;100600.94;5070381;28;20464;-61
2022/08/11 00:05:06;;;;;;;3.00;2.23;;;;;;;25.18;42.77;100603.44;5068916;28;20449;-61
2022/08/11 00:07:32;;;;;;;4.23;2.40;;;;;;;25.21;42.68;100591.03;5085529;28;20873;-61
2022/08/11 00:09:57;;;;;;;4.40;2.80;;;;;;;25.24;42.52;100604.63;5087457;28;20447;-62
2022/08/11 00:12:23;;;;;;;6.47;2.23;;;;;;;25.25;42.69;100603.44;5080254;28;20206;-61
2022/08/11 00:14:56;;;;;;;5.83;2.53;;;;;;;25.26;42.73;100610.88;5091187;28;20162;-61
2022/08/11 00:17:21;;;;;;;4.00;2.47;;;;;;;25.27;42.55;100608.78;5089879;28;20741;-61
2022/08/11 00:19:47;;;;;;;3.47;2.17;;;;;;;25.27;42.51;100609.63;5069290;28;20441;-61
2022/08/11 00:22:19;;;;;;;7.00;2.77;;;;;;;25.27;42.68;100605.91;5069790;28;20182;-61
2022/08/11 00:24:45;;;;;;;6.10;2.20;;;;;;;25.29;42.33;100603.44;5072622;28;20239;-61
2022/08/11 00:27:10;;;;;;;6.83;2.50;;;;;;;25.28;42.42;100602.59;5089721;28;20428;-61
2022/08/11 00:29:36;;;;;;;4.87;2.27;;;;;;;25.29;42.67;100604.22;5090902;28;20167;-61
2022/08/11 00:32:02;;;;;;;5.47;2.40;;;;;;;25.31;42.97;100607.56;5089790;28;20182;-61
2022/08/11 00:34:30;;;;;;;3.53;2.47;;;;;;;25.32;42.48;100608.34;5089476;28;20170;-61
2022/08/11 00:37:05;;;;;;;5.27;2.30;;;;;;;25.32;42.23;100611.25;5090741;28;20432;-61
2022/08/11 00:39:32;;;;;;;4.27;2.77;;;;;;;25.33;42.42;100604.25;5090661;28;20433;-62
2022/08/11 00:42:09;;;;;;;4.67;2.50;;;;;;;25.34;42.25;100606.69;5091049;28;20473;-62
2022/08/11 00:44:37;;;;;;;16.63;2.80;;;;;;;25.34;42.40;100608.78;5089291;28;20818;-61
2022/08/11 00:47:31;;;;;;;6.07;2.07;;;;;;;25.33;42.54;100610.84;5086833;28;20931;-61
2022/08/11 00:50:06;;;;;;;3.40;2.10;;;;;;;25.34;42.37;100612.47;5093865;28;20446;-61
2022/08/11 00:52:46;;;;;;;4.03;2.30;;;;;;;25.34;42.67;100609.59;5094928;28;20400;-61
2022/08/11 00:55:14;;;;;;;4.03;2.40;;;;;;;25.35;42.50;100607.53;5084244;28;20474;-61
2022/08/11 00:57:55;;;;;;;4.23;2.20;;;;;;;25.35;42.81;100613.31;5090112;28;20523;-61
2022/08/11 01:00:24;;;;;;;5.43;2.60;;;;;;;25.35;42.33;100614.16;5095026;28;20632;-61
2022/08/11 01:03:17;;;;;;;5.63;2.60;;;;;;;25.36;42.64;100603.38;5094652;28;20404;-61
2022/08/11 01:06:24;;;;;;;3.10;1.90;;;;;;;25.36;42.65;100607.13;5092838;28;20464;-61
2022/08/11 01:09:28;;;;;;;4.00;1.97;;;;;;;25.37;42.78;100605.88;5053021;28;20522;-61
2022/08/11 01:12:31;;;;;;;3.00;2.20;;;;;;;25.36;42.83;100604.22;5090401;28;20499;-61
2022/08/11 01:15:24;;;;;;;7.83;2.33;;;;;;;25.37;42.62;100608.75;5090036;28;20424;-61
2022/08/11 01:18:26;;;;;;;4.40;2.13;;;;;;;25.37;42.48;100600.06;5093254;28;20454;-61
2022/08/11 01:21:34;;;;;;;5.37;2.70;;;;;;;25.37;42.54;100600.06;5073833;28;20420;-61
2022/08/11 01:24:33;;;;;;;3.63;1.97;;;;;;;25.37;42.69;100605.88;5074090;28;20420;-61
2022/08/11 01:27:21;;;;;;;3.53;2.30;;;;;;;25.37;42.63;100594.28;5072760;28;20421;-61
2022/08/11 01:30:38;;;;;;;4.33;2.10;;;;;;;25.38;42.49;100595.13;5075219;28;20417;-61
2022/08/11 01:33:25;;;;;;;4.50;2.40;;;;;;;25.38;42.70;100595.13;5055853;28;20426;-61
2022/08/11 01:36:15;;;;;;;3.70;2.40;;;;;;;25.37;42.69;100597.19;5085115;28;20786;-61
2022/08/11 01:38:54;;;;;;;3.57;2.13;;;;;;;25.36;42.59;100597.59;5093568;28;20497;-61
2022/08/11 01:45:03;;;;;;;6.23;2.37;;;;;;;25.35;42.57;100596.81;5085888;28;20552;-62
2022/08/11 01:47:49;;;;;;;3.83;2.10;;;;;;;25.35;42.58;100596.81;5086170;28;20748;-61
2022/08/11 01:50:36;;;;;;;4.03;2.53;;;;;;;25.35;42.72;100593.91;5092052;28;20428;-61
2022/08/11 01:53:06;;;;;;;7.00;2.80;;;;;;;25.35;42.57;100602.59;5090249;28;20405;-61
2022/08/11 01:56:08;;;;;;;3.50;2.13;;;;;;;25.35;42.80;100591.00;5083218;28;20419;-61
2022/08/11 01:58:47;;;;;;;5.77;2.37;;;;;;;25.35;42.85;100593.06;5092713;28;20787;-61
2022/08/11 02:01:36;;;;;;;4.23;2.00;;;;;;;25.35;42.33;100595.97;5092268;28;20421;-61
2022/08/11 02:04:08;;;;;;;4.93;2.30;;;;;;;25.36;42.59;100600.50;5091944;28;20422;-61
2022/08/11 02:06:55;;;;;;;4.60;2.50;;;;;;;25.35;42.62;100602.59;5091775;28;20416;-61
2022/08/11 02:09:54;;;;;;;3.23;1.90;;;;;;;25.35;42.83;100608.38;5091221;28;20424;-61
2022/08/11 02:12:40;;;;;;;8.07;2.50;;;;;;;25.34;42.24;100606.69;5092629;28;20979;-61
2022/08/11 02:15:23;;;;;;;5.53;2.47;;;;;;;25.31;42.65;100604.66;5092900;28;20409;-61
2022/08/11 02:18:07;;;;;;;4.90;2.37;;;;;;;25.30;42.20;100599.28;5091648;28;20486;-61
2022/08/11 02:23:55;;;;;;;5.57;2.77;;;;;;;25.30;42.80;100599.28;5092133;28;20419;-61
2022/08/11 02:26:35;;;;;;;3.47;2.50;;;;;;;25.32;42.51;100597.63;5091775;28;20470;-61
2022/08/11 02:29:22;;;;;;;4.87;2.63;;;;;;;25.31;42.46;100590.22;5091695;28;20572;-61
2022/08/11 02:35:00;;;;;;;3.73;2.10;;;;;;;25.32;42.57;100588.13;5091763;28;20478;-61
2022/08/11 02:37:31;;;;;;;3.97;2.90;;;;;;;25.32;42.84;100588.97;5092299;28;20435;-61
2022/08/11 02:39:57;;;;;;;4.87;2.37;;;;;;;25.33;43.11;100584.00;5091750;28;20440;-61
2022/08/11 02:42:25;;;;;;;4.67;2.50;;;;;;;25.32;42.82;100580.28;5091920;28;20424;-62
2022/08/11 02:45:05;;;;;;;3.40;2.20;;;;;;;25.33;42.67;100581.13;5090773;28;20208;-61
2022/08/11 02:47:37;;;;;;;4.10;2.40;;;;;;;25.31;42.91;100596.00;5083430;28;20435;-61
2022/08/11 02:50:50;;;;;;;4.90;2.70;;;;;;;25.29;42.85;100589.78;5090337;28;20428;-61
2022/08/11 02:53:28;;;;;;;5.47;1.90;;;;;;;25.28;42.70;100591.03;5030539;28;20814;-61
2022/08/11 02:56:00;;;;;;;6.23;2.50;;;;;;;25.27;42.54;100592.28;5090956;28;20422;-61
2022/08/11 02:59:48;;;;;;;3.20;2.40;;;;;;;25.28;42.66;100593.13;5082037;28;20476;-61
2022/08/11 03:01:52;;;;;;;6.73;2.53;;;;;;;25.26;42.62;100593.53;5071075;28;20464;-61
2022/08/11 03:04:56;;;;;;;8.00;2.30;;;;;;;25.25;42.50;100597.66;5071983;28;20549;-61
2022/08/11 03:07:38;;;;;;;5.13;2.20;;;;;;;25.24;42.65;100601.75;5051412;28;20868;-62
2022/08/11 03:10:08;;;;;;;3.00;2.30;;;;;;;25.23;42.40;100600.09;5091574;28;20421;-61
2022/08/11 03:19:17;;;;;;;9.53;2.47;;;;;;;25.19;42.27;100604.25;5090937;28;20437;-61
2022/08/11 03:22:01;;;;;;;4.80;2.40;;;;;;;25.19;42.60;100607.97;5091748;28;20460;-61
2022/08/11 03:24:45;;;;;;;3.97;2.20;;;;;;;25.19;42.60;100599.28;5064271;28;20478;-61
2022/08/11 03:27:28;;;;;;;5.70;2.93;;;;;;;25.18;42.95;100606.31;5091565;28;20420;-61
2022/08/11 03:30:02;;;;;;;6.17;2.53;;;;;;;25.19;42.21;100610.84;5090740;28;20412;-61
2022/08/11 03:35:40;;;;;;;6.90;2.53;;;;;;;25.17;42.49;100613.34;5067484;28;20432;-61
2022/08/11 03:38:09;;;;;;;6.70;2.77;;;;;;;25.17;42.61;100607.56;5086547;28;20428;-61
2022/08/11 03:44:01;;;;;;;8.43;2.77;;;;;;;25.16;42.26;100614.59;5090731;28;20542;-61
2022/08/11 03:46:34;;;;;;;5.00;2.63;;;;;;;25.17;42.40;100607.56;5081354;28;20421;-61
2022/08/11 03:49:19;;;;;;;4.00;2.80;;;;;;;25.15;41.92;100604.28;5089839;28;20786;-61
2022/08/11 03:52:07;;;;;;;3.90;2.73;;;;;;;25.16;42.26;100617.50;5091546;28;20404;-61
2022/08/11 03:54:57;;;;;;;3.43;2.50;;;;;;;25.16;42.18;100620.38;5075588;28;20401;-61
2022/08/11 03:57:54;;;;;;;3.47;2.50;;;;;;;25.17;42.23;100618.28;5084961;28;20432;-61
2022/08/11 04:00:35;;;;;;;6.43;2.40;;;;;;;25.15;41.97;100603.44;5079351;28;20425;-61
2022/08/11 04:03:24;;;;;;;3.60;2.40;;;;;;;25.16;42.20;100610.88;5090936;28;20462;-61
2022/08/11 04:06:18;;;;;;;5.23;2.70;;;;;;;25.16;42.22;100611.72;5089982;28;20451;-61
2022/08/11 04:09:15;;;;;;;7.03;2.60;;;;;;;25.15;42.47;100610.06;5074136;28;20451;-61
2022/08/11 04:12:06;;;;;;;5.90;2.43;;;;;;;25.17;42.45;100609.63;5090893;28;20822;-61
2022/08/11 04:17:49;;;;;;;7.13;2.73;;;;;;;25.17;41.91;100619.13;5089897;28;20498;-61
2022/08/11 04:20:45;;;;;;;4.60;2.50;;;;;;;25.16;42.20;100613.75;5090817;28;20436;-61
2022/08/11 04:23:32;;;;;;;5.23;2.67;;;;;;;25.16;42.34;100616.66;5090403;28;20481;-61
2022/08/11 04:26:07;;;;;;;5.67;2.80;;;;;;;25.14;42.09;100613.38;5090216;28;20736;-61
2022/08/11 04:28:53;;;;;;;5.30;2.70;;;;;;;25.13;42.37;100606.75;5090021;28;21005;-61
2022/08/11 04:31:39;;;;;;;4.87;2.40;;;;;;;25.13;42.21;100609.66;5088942;28;20430;-61
2022/08/11 04:34:30;;;;;;;4.23;2.40;;;;;;;25.11;41.94;100603.47;5090099;28;20414;-61
2022/08/11 04:37:36;;;;;;;3.83;2.30;;;;;;;25.10;42.00;100601.84;5090383;28;21062;-61
2022/08/11 04:40:09;;;;;;;3.73;2.27;;;;;;;25.11;41.90;100608.41;5089901;28;21289;-61
2022/08/11 04:45:38;;;;;;;4.60;2.80;;;;;;;25.11;41.75;100609.25;5087933;28;20452;-61
2022/08/11 05:03:10;;;;;;;5.20;3.13;;;;;;;25.05;42.09;100610.94;5089591;28;20496;-61
2022/08/11 05:06:14;;;;;;;8.20;2.70;;;;;;;25.06;41.31;100617.50;5089411;28;20512;-61
2022/08/11 05:08:51;;;;;;;4.13;2.83;;;;;;;25.05;41.89;100616.72;5090635;28;20412;-61
2022/08/11 05:11:44;;;;;;;4.00;2.23;;;;;;;25.07;41.64;100624.94;5089291;28;20472;-61
2022/08/11 05:36:49;;;;;;;9.00;3.00;;;;;;;25.05;41.56;100627.44;5093634;28;20423;-61
2022/08/11 05:58:37;;;;;;;6.87;2.83;;;;;;;24.98;41.95;100619.59;5092009;28;20496;-61
2022/08/11 06:01:03;;;;;;;9.70;3.00;;;;;;;24.97;42.40;100620.84;5093652;28;20435;-61
2022/08/11 06:03:29;;;;;;;8.10;2.97;;;;;;;24.98;41.99;100622.50;5092371;28;20409;-61
2022/08/11 06:05:56;;;;;;;5.27;3.10;;;;;;;24.96;42.00;100621.25;5086811;28;20661;-61
2022/08/11 06:08:34;;;;;;;6.37;3.53;;;;;;;24.90;42.14;100620.88;5089503;28;20420;-61
2022/08/11 06:11:02;;;;;;;9.70;2.90;;;;;;;24.91;42.38;100618.78;5091813;28;20551;-61
2022/08/11 06:13:28;;;;;;;12.03;2.80;;;;;;;24.92;41.99;100620.44;5087421;28;20527;-61
2022/08/11 06:15:54;;;;;;;7.70;3.10;;;;;;;24.91;42.20;100622.53;5091407;28;20519;-61
2022/08/11 06:18:20;;;;;;;8.77;3.30;;;;;;;24.91;42.16;100610.97;5090584;28;21161;-61
2022/08/11 06:20:55;;;;;;;10.13;3.03;;;;;;;24.93;41.86;100616.34;5091688;28;20170;-61
2022/08/11 06:23:24;;;;;;;9.83;3.73;;;;;;;24.94;42.08;100618.78;5091684;28;20181;-61
2022/08/11 06:25:53;;;;;;;6.13;3.20;;;;;;;24.91;42.34;100622.53;5091807;28;20460;-61
2022/08/11 06:28:20;;;;;;;5.17;2.50;;;;;;;24.92;42.25;100609.72;5093005;28;20455;-61
2022/08/11 06:30:45;;;;;;;13.40;3.47;;;;;;;24.93;42.11;100617.13;5093190;28;20424;-61
2022/08/11 06:33:16;;;;;;;10.07;3.00;;;;;;;24.93;42.34;100619.22;5091386;28;20424;-61
2022/08/11 06:36:01;;;;;;;12.37;3.30;;;;;;;24.87;42.64;100620.88;5074739;28;20174;-61
2022/08/11 06:38:46;;;;;;;6.77;3.03;;;;;;;24.91;42.39;100618.78;5091799;28;20776;-61
2022/08/11 06:41:38;;;;;;;7.20;2.60;;;;;;;24.90;42.34;100614.25;5091645;28;20432;-61
2022/08/11 06:44:12;;;;;;;6.10;2.60;;;;;;;24.92;42.53;100617.56;5072767;28;20410;-61
2022/08/11 06:46:38;;;;;;;7.00;3.10;;;;;;;24.63;43.59;100616.78;5080256;28;20457;-61
2022/08/11 06:51:57;;;;;;;6.67;2.97;;;;;;;25.25;46.87;100626.56;5085900;28;20266;-61
2022/08/11 06:54:23;;;;;;;6.87;3.43;;;;;;;25.22;46.08;100626.53;5090619;28;20409;-61
2022/08/11 07:02:21;;;;;;;6.50;3.13;;;;;;;24.99;45.63;100621.25;5069943;28;20416;-61
2022/08/11 07:04:52;;;;;;;12.37;3.60;;;;;;;24.87;44.69;100621.69;5067826;28;20533;-61
2022/08/11 07:16:27;;;;;;;7.13;3.10;;;;;;;24.77;45.77;100619.66;5073685;28;20589;-62
2022/08/11 07:30:07;;;;;;;6.70;3.10;;;;;;;25.01;45.36;100620.84;5090144;28;20481;-62
2022/08/11 07:32:35;;;;;;;9.80;3.50;;;;;;;24.98;45.12;100625.38;5078458;28;20410;-62
2022/08/11 07:35:14;;;;;;;7.83;2.70;;;;;;;24.97;44.42;100617.13;5080271;28;20466;-61
2022/08/11 07:37:40;;;;;;;9.90;2.90;;;;;;;24.97;44.31;100620.00;5072396;28;20424;-62
2022/08/11 07:40:06;;;;;;;9.63;3.40;;;;;;;25.08;44.15;100612.97;5070714;28;20434;-62
2022/08/11 07:42:34;;;;;;;8.63;3.80;;;;;;;25.13;44.30;100617.50;5090296;28;20945;-61
2022/08/11 07:53:12;;;;;;;6.50;3.00;;;;;;;25.07;43.78;100607.59;5087027;28;20453;-61
2022/08/11 07:55:38;;;;;;;7.20;2.60;;;;;;;25.07;43.55;100605.53;5076032;28;20412;-61
2022/08/11 08:20:06;;;;;;;6.40;3.13;;;;;;;25.24;42.80;100606.72;5089743;28;20427;-61
2022/08/11 08:22:31;;;;;;;10.43;2.70;;;;;;;25.30;42.72;100599.28;5091123;28;20539;-61
2022/08/11 08:24:56;;;;;;;8.23;2.83;;;;;;;25.32;42.54;100593.91;5086811;28;20468;-61
2022/08/11 08:27:24;;;;;;;5.67;3.00;;;;;;;25.34;42.76;100589.34;5089801;28;20264;-61
2022/08/11 08:32:33;;;;;;;10.30;2.70;;;;;;;25.42;43.27;100596.75;5068893;28;20443;-60
2022/08/11 08:34:59;;;;;;;7.80;3.27;;;;;;;25.43;42.97;100588.91;5051407;28;20924;-60
2022/08/11 08:37:28;;;;;;;9.17;3.40;;;;;;;25.47;43.27;100593.41;5069838;28;20770;-60
2022/08/11 08:39:53;;;;;;;8.70;3.00;;;;;;;25.47;41.98;100593.41;5068472;28;20382;-61
2022/08/11 08:42:22;;;;;;;6.07;2.63;;;;;;;25.53;42.44;100591.72;5068927;28;20475;-61
2022/08/11 08:44:50;;;;;;;7.20;2.93;;;;;;;25.53;42.44;100583.06;5068794;28;20281;-61
2022/08/11 08:47:17;;;;;;;10.43;3.33;;;;;;;25.52;42.51;100592.97;5086499;28;20509;-61
2022/08/11 08:49:50;;;;;;;6.10;2.50;;;;;;;25.55;42.41;100583.47;5090243;28;21178;-61
2022/08/11 08:52:18;;;;;;;6.10;2.67;;;;;;;25.57;42.51;100577.25;5088359;28;20401;-61
2022/08/11 08:54:44;;;;;;;5.77;3.03;;;;;;;25.64;42.34;100585.88;5072294;28;20959;-61
2022/08/11 08:57:10;;;;;;;10.60;3.20;;;;;;;25.61;42.24;100576.00;5068333;28;20425;-61
2022/08/11 08:59:40;;;;;;;8.73;3.23;;;;;;;25.67;42.04;100571.41;5068195;28;20179;-61
2022/08/11 09:02:06;;;;;;;7.17;3.10;;;;;;;25.63;42.48;100578.44;5084290;28;20563;-61
2022/08/11 09:04:31;;;;;;;10.80;3.00;;;;;;;25.66;41.72;100580.50;5070468;28;20457;-61
2022/08/11 09:07:07;;;;;;;8.07;2.83;;;;;;;25.69;42.07;100582.56;5070753;28;20288;-61
2022/08/11 09:09:33;;;;;;;9.07;2.90;;;;;;;25.68;41.76;100578.81;5073242;28;20182;-61
2022/08/11 09:11:58;;;;;;;6.40;2.23;;;;;;;25.73;41.65;100581.28;5089768;28;20999;-61
2022/08/11 09:17:33;;;;;;;12.97;3.00;;;;;;;25.74;41.36;100576.31;5075033;28;20555;-61
2022/08/11 09:20:06;;;;;;;10.07;3.37;;;;;;;25.78;40.85;100575.03;5073408;28;20428;-61
2022/08/11 09:28:06;;;;;;;5.40;2.90;;;;;;;25.94;38.61;100548.50;5093985;28;20419;-61
2022/08/11 09:30:31;;;;;;;4.30;2.73;;;;;;;25.96;37.92;100555.53;5094280;28;20915;-61
2022/08/11 09:32:59;;;;;;;5.37;2.33;;;;;;;26.05;36.46;100550.03;5094256;28;20428;-61
2022/08/11 09:35:29;;;;;;;4.80;2.20;;;;;;;25.99;37.97;100556.75;5088618;28;20204;-61
2022/08/11 09:40:43;;;;;;;4.20;2.17;;;;;;;26.05;36.64;100555.84;5072079;28;21014;-61
2022/08/11 09:45:54;;;;;;;6.10;2.83;;;;;;;26.12;35.76;100552.91;5078999;28;21281;-61
2022/08/11 09:48:22;;;;;;;5.20;2.23;;;;;;;26.16;36.60;100553.69;5091814;28;20512;-61
2022/08/11 09:50:49;;;;;;;6.70;2.53;;;;;;;26.15;36.80;100536.75;5075736;28;20535;-61
2022/08/11 09:53:15;;;;;;;3.80;2.30;;;;;;;26.21;36.52;100547.44;5093959;28;20508;-61
2022/08/11 09:55:42;;;;;;;6.60;2.60;;;;;;;26.10;37.18;100540.09;5075839;28;20507;-61
2022/08/11 09:58:15;;;;;;;7.30;2.33;;;;;;;26.24;36.84;100545.78;5087873;28;20231;-61
2022/08/11 10:00:40;;;;;;;4.60;2.60;;;;;;;26.38;35.74;100543.53;5071623;28;20437;-61
2022/08/11 10:03:10;;;;;;;7.53;2.50;;;;;;;26.28;36.04;100541.59;5071373;28;20772;-61
2022/08/11 10:08:20;;;;;;;5.13;2.17;;;;;;;26.38;35.23;100531.97;5082883;28;20486;-61
2022/08/11 10:10:46;;;;;;;4.30;2.57;;;;;;;26.28;36.28;100544.47;5092070;28;20468;-61
2022/08/11 10:13:18;;;;;;;4.97;2.20;;;;;;;26.43;35.73;100531.50;5074169;28;20605;-61
2022/08/11 10:15:45;;;;;;;5.70;2.30;;;;;;;26.35;36.09;100532.00;5072524;28;20247;-61
2022/08/11 10:21:13;;;;;;;3.77;2.40;;;;;;;26.32;35.69;100536.59;5071652;28;20417;-61
2022/08/11 10:33:58;;;;;;;3.93;2.10;;;;;;;26.29;35.80;100530.84;5091288;28;20500;-61
2022/08/11 10:34:37;;;;;;;4.13;2.40;;;;;;;26.35;35.41;100517.53;5082763;28;20546;-62
2022/08/11 10:37:03;;;;;;;4.10;2.57;;;;;;;26.48;35.40;100509.94;5071719;28;20912;-61
2022/08/11 10:39:28;;;;;;;8.50;2.40;;;;;;;26.47;35.17;100514.91;5072862;28;20641;-61
2022/08/11 10:44:42;;;;;;;6.77;3.00;;;;;;;26.52;35.03;100517.34;5071455;28;20202;-61
2022/08/11 11:01:11;;;;;;;11.17;5.70;;;;;;;26.51;34.57;100501.22;5046963;28;20502;-61
2022/08/11 11:03:37;;;;;;;14.03;7.87;;;;;;;26.53;34.61;100492.91;5021306;28;20421;-61
2022/08/11 11:06:08;;;;;;;12.93;6.90;;;;;;;26.51;34.50;100492.53;5070982;28;20218;-61
2022/08/11 11:08:54;;;;;;;10.50;6.57;;;;;;;26.50;34.45;100487.97;5072467;28;20229;-61
2022/08/11 11:11:20;;;;;;;15.90;9.47;;;;;;;26.62;34.47;100493.25;5085056;28;20477;-61
2022/08/11 11:19:22;;;;;;;19.23;7.43;;;;;;;26.62;34.69;100484.56;5069951;28;20401;-61
2022/08/11 11:21:48;;;;;;;11.80;6.20;;;;;;;26.69;34.82;100484.47;5080231;28;20501;-61
2022/08/11 11:24:43;;;;;;;7.20;5.23;;;;;;;26.72;35.30;100474.94;5073655;28;20435;-61
2022/08/11 11:27:22;;;;;;;8.40;5.03;;;;;;;26.75;34.54;100479.03;5090389;28;20488;-61
2022/08/11 11:30:05;;;;;;;9.27;5.00;;;;;;;26.80;34.44;100479.38;5080828;28;20432;-61
2022/08/11 11:32:34;;;;;;;6.13;4.70;;;;;;;26.81;35.07;100471.50;5069530;28;20425;-61
2022/08/11 11:35:12;;;;;;;16.60;5.43;;;;;;;26.73;35.06;100470.78;5071962;28;20490;-62
2022/08/11 11:37:38;;;;;;;13.43;4.20;;;;;;;26.69;34.57;100478.69;5054043;28;20468;-61
2022/08/11 11:40:11;;;;;;;4.57;2.93;;;;;;;26.70;35.00;100477.41;5071690;28;20441;-61
2022/08/11 11:42:40;;;;;;;5.00;3.70;;;;;;;26.79;34.40;100468.22;5070376;28;20445;-61
2022/08/11 11:45:08;;;;;;;5.30;2.90;;;;;;;26.82;34.17;100481.84;5054162;28;20466;-62
2022/08/11 11:47:34;;;;;;;6.80;2.93;;;;;;;26.74;34.71;100465.81;5090321;28;20805;-62
2022/08/11 11:50:00;;;;;;;10.30;3.30;;;;;;;26.84;34.05;100471.44;5074041;28;20436;-62
2022/08/11 11:52:25;;;;;;;7.47;3.07;;;;;;;26.81;33.80;100460.75;5087686;28;20467;-61
2022/08/11 11:54:54;;;;;;;9.27;2.93;;;;;;;26.93;33.56;100465.13;5070079;28;20558;-61
2022/08/11 12:02:54;;;;;;;3.43;2.80;;;;;;;26.79;33.63;100445.06;5071192;28;20401;-61
2022/08/11 12:05:19;;;;;;;5.73;2.33;;;;;;;26.71;34.10;100431.91;5082767;28;20488;-61
2022/08/11 12:10:29;;;;;;;3.53;2.90;;;;;;;26.75;34.33;100444.28;5089817;28;20360;-61
2022/08/11 12:15:39;;;;;;;7.87;2.93;;;;;;;26.70;34.27;100433.97;5070126;28;20404;-61
2022/08/11 12:18:04;;;;;;;3.80;2.13;;;;;;;26.67;35.11;100431.97;5071104;28;20859;-61
2022/08/11 12:20:30;;;;;;;4.17;2.53;;;;;;;26.77;34.25;100431.00;5080300;28;20175;-61
2022/08/11 12:28:23;;;;;;;4.00;2.90;;;;;;;26.76;34.34;100423.56;5075397;28;20787;-61
2022/08/11 12:30:50;;;;;;;6.27;2.87;;;;;;;26.84;34.24;100412.69;5070791;28;20421;-61
2022/08/11 12:33:15;;;;;;;6.10;2.57;;;;;;;26.78;35.17;100415.25;5052972;28;20353;-61
2022/08/11 12:35:41;;;;;;;4.70;2.27;;;;;;;26.77;34.75;100415.69;5087736;28;20791;-61
2022/08/11 12:38:06;;;;;;;3.57;2.57;;;;;;;26.97;34.96;100411.66;5089271;28;20697;-61
2022/08/11 12:46:04;;;;;;;5.97;2.97;;;;;;;26.88;33.45;100401.84;5089947;28;20459;-61
2022/08/11 12:54:13;;;;;;;3.73;1.97;;;;;;;27.06;33.25;100400.38;5073745;28;20432;-61
2022/08/11 13:05:01;;;;;;;6.20;2.83;;;;;;;27.08;33.59;100389.13;5078386;28;20518;-61
2022/08/11 13:07:26;;;;;;;4.93;2.60;;;;;;;27.02;33.67;100385.09;5073451;28;20475;-61
2022/08/11 13:09:52;;;;;;;4.20;2.20;;;;;;;26.92;34.40;100382.34;5055641;28;21178;-62
2022/08/11 13:15:19;;;;;;;6.53;2.17;;;;;;;27.06;33.06;100379.25;5046698;28;20977;-62
2022/08/11 13:17:47;;;;;;;3.87;2.33;;;;;;;27.03;33.45;100375.13;5073178;28;20456;-62
2022/08/11 13:20:13;;;;;;;3.73;1.80;;;;;;;27.09;33.38;100361.78;5073001;28;20417;-61
2022/08/11 13:22:40;;;;;;;10.20;2.60;;;;;;;27.06;33.03;100368.47;5082020;28;20783;-61
2022/08/11 13:25:06;;;;;;;3.93;2.43;;;;;;;27.12;33.45;100360.91;5093050;28;20462;-61
2022/08/11 13:27:31;;;;;;;5.37;2.80;;;;;;;27.04;33.55;100362.28;5094392;28;20436;-61
2022/08/11 13:32:41;;;;;;;10.07;2.73;;;;;;;27.08;33.45;100348.56;5078944;28;20247;-62
2022/08/11 13:35:07;;;;;;;5.00;2.80;;;;;;;27.10;33.49;100351.81;5092361;28;20503;-61
2022/08/11 13:37:34;;;;;;;3.90;2.40;;;;;;;27.17;33.22;100345.97;5093647;28;20194;-61
2022/08/11 13:40:00;;;;;;;6.57;2.47;;;;;;;27.33;32.80;100331.59;5092036;28;20515;-62
2022/08/11 13:42:26;;;;;;;4.50;2.60;;;;;;;27.25;33.11;100330.06;5093255;28;20427;-60
2022/08/11 13:44:51;;;;;;;4.30;2.33;;;;;;;27.22;32.58;100328.06;5092200;28;20456;-60
2022/08/11 13:47:17;;;;;;;5.50;1.90;;;;;;;27.23;32.82;100335.50;5092553;28;20178;-60
2022/08/11 13:49:42;;;;;;;4.00;2.70;;;;;;;27.24;32.77;100334.25;5079391;28;20641;-60
2022/08/11 13:52:13;;;;;;;5.13;2.30;;;;;;;27.11;33.73;100339.00;5092689;28;20181;-60
2022/08/11 13:54:39;;;;;;;5.27;2.33;;;;;;;27.14;33.33;100329.41;5082836;28;20719;-61
2022/08/11 13:57:06;;;;;;;3.50;2.30;;;;;;;27.17;33.41;100331.47;5073458;28;20514;-61
2022/08/11 13:59:31;;;;;;;5.70;2.30;;;;;;;27.09;33.29;100318.31;5073659;28;20413;-60
2022/08/11 14:02:03;;;;;;;5.17;2.07;;;;;;;27.09;33.18;100317.50;5071304;28;20494;-60
2022/08/11 14:04:38;;;;;;;5.40;2.80;;;;;;;27.16;33.26;100318.22;5079026;28;20178;-61
2022/08/11 14:07:08;;;;;;;5.60;2.50;;;;;;;27.24;32.83;100318.94;5074883;28;20878;-61
2022/08/11 14:09:42;;;;;;;3.70;1.87;;;;;;;27.22;33.06;100319.38;5092823;28;20417;-61
2022/08/11 14:15:09;;;;;;;4.13;2.47;;;;;;;27.12;33.10;100311.63;5092398;28;20419;-61
2022/08/11 14:17:35;;;;;;;4.97;2.13;;;;;;;27.29;32.87;100310.53;5091893;28;20451;-61
2022/08/11 14:20:02;;;;;;;3.60;2.30;;;;;;;27.24;32.73;100310.25;5093386;28;20890;-61
2022/08/11 14:22:28;;;;;;;4.80;2.10;;;;;;;27.22;33.30;100301.97;5093406;28;20167;-61
2022/08/11 14:24:53;;;;;;;5.73;2.30;;;;;;;27.29;32.64;100316.34;5091687;28;20460;-61
2022/08/11 14:27:25;;;;;;;4.77;2.27;;;;;;;27.33;32.86;100305.50;5093372;28;20544;-61
2022/08/11 14:29:50;;;;;;;7.87;2.60;;;;;;;27.37;32.45;100303.38;5074826;28;20258;-61
2022/08/11 14:32:16;;;;;;;6.17;2.97;;;;;;;27.41;32.63;100303.31;5071697;28;20947;-61
2022/08/11 14:34:42;;;;;;;3.67;2.10;;;;;;;27.32;32.17;100295.16;5071495;28;20185;-61
2022/08/11 14:37:12;;;;;;;3.30;2.33;;;;;;;27.29;32.49;100296.03;5072833;28;20167;-61
2022/08/11 14:39:43;;;;;;;6.43;1.93;;;;;;;27.33;33.09;100299.69;5055148;28;20866;-61
2022/08/11 14:47:44;;;;;;;4.80;2.20;;;;;;;27.45;32.44;100284.56;5071745;28;20863;-61
2022/08/11 14:50:16;;;;;;;4.47;2.40;;;;;;;27.38;32.48;100276.00;5087889;28;20426;-61
2022/08/11 14:52:53;;;;;;;3.50;2.40;;;;;;;27.53;31.45;100288.16;5079774;28;20412;-62
2022/08/11 14:58:03;;;;;;;7.87;2.30;;;;;;;27.35;31.97;100267.38;5092923;28;20415;-61
2022/08/11 15:00:29;;;;;;;6.47;3.00;;;;;;;27.41;32.12;100277.19;5071543;28;20783;-61
2022/08/11 15:03:09;;;;;;;4.90;2.50;;;;;;;27.39;31.92;100266.03;5091357;28;20173;-61
2022/08/11 15:05:37;;;;;;;5.50;2.37;;;;;;;27.34;31.90;100263.66;5088366;28;20194;-61
2022/08/11 15:08:02;;;;;;;3.83;2.27;;;;;;;27.39;31.83;100266.03;5072337;28;20421;-61
2022/08/11 15:10:28;;;;;;;4.20;2.10;;;;;;;27.51;31.87;100264.56;5071771;28;20470;-61
2022/08/11 15:12:53;;;;;;;5.43;2.33;;;;;;;27.41;31.94;100257.72;5071989;28;20166;-61
2022/08/11 15:18:04;;;;;;;5.20;2.00;;;;;;;27.50;31.34;100257.94;5071205;28;20613;-61
2022/08/11 15:26:02;;;;;;;3.63;2.00;;;;;;;27.52;31.08;100252.53;5071618;28;20453;-61
2022/08/11 15:39:35;;;;;;;4.97;2.03;;;;;;;27.36;31.79;100232.13;5055599;28;20504;-61
2022/08/11 15:47:48;;;;;;;3.90;2.50;;;;;;;27.45;31.07;100235.25;5073292;28;20420;-61
2022/08/11 15:50:16;;;;;;;6.50;2.43;;;;;;;27.46;30.88;100239.81;5072634;28;20473;-61
2022/08/11 15:52:59;;;;;;;3.37;2.33;;;;;;;27.39;31.40;100244.94;5090771;28;20519;-61
2022/08/11 15:55:24;;;;;;;6.27;2.27;;;;;;;27.36;31.23;100237.94;5073460;28;20895;-61
2022/08/11 16:06:04;;;;;;;5.97;2.27;;;;;;;27.42;31.30;100233.25;5090321;28;20489;-61
2022/08/11 16:08:30;;;;;;;4.97;2.40;;;;;;;27.46;31.41;100239.81;5091284;28;20974;-61
2022/08/11 16:10:55;;;;;;;9.30;2.23;;;;;;;27.42;31.73;100235.31;5089805;28;20606;-61
2022/08/11 16:18:41;;;;;;;5.40;2.17;;;;;;;27.54;30.19;100238.41;5090611;28;20680;-61
2022/08/11 16:21:18;;;;;;;4.77;2.30;;;;;;;27.49;30.08;100238.09;5090000;28;20439;-61
2022/08/11 16:23:45;;;;;;;2.77;1.90;;;;;;;27.40;30.81;100232.06;5090119;28;20783;-61
2022/08/11 16:26:11;;;;;;;5.73;2.17;;;;;;;27.32;31.23;100234.28;5089921;28;20456;-61
2022/08/11 16:28:37;;;;;;;6.17;2.43;;;;;;;27.45;30.37;100238.16;5089829;28;20454;-61
2022/08/11 16:31:04;;;;;;;8.60;2.20;;;;;;;27.42;30.97;100227.47;5089909;28;20431;-61
2022/08/11 16:33:29;;;;;;;3.90;2.23;;;;;;;27.43;30.69;100226.19;5073342;28;20442;-61
2022/08/11 16:38:39;;;;;;;4.63;2.00;;;;;;;27.48;29.77;100216.16;5090095;28;20288;-61
2022/08/11 16:41:12;;;;;;;4.67;2.40;;;;;;;27.46;29.87;100219.50;5090880;28;20424;-61
2022/08/11 16:49:04;;;;;;;3.07;2.03;;;;;;;27.43;31.09;100208.78;5089006;28;20411;-61